Pagina principală
Imagini satelitare Vremea 15-zileClimăMare Cicloane Trăsnet AeroporturiÎntrebări Noutăţi Despre
Meteo : Europa Africa America de Nord America de Sud Asia Australia-Oceania Alte
Limbi Contact

Bucureşti-Băneasa, România

Aurel Vlaicu

Latitudine: 44-30N, Longitudine: 026-08E, Altitudine: 90 m


METAR: LRBS 302300Z 08004KT CAVOK 21/18 Q1010 NOSIG
short-TAF: invechit (9276 ore)
long-TAF: LRBS 301700Z 3018/3118 09006KT CAVOK

Oră: 02:16 (23:16 UTC)

observaţii meteorologice

Raportul a fost facut 16 minute în urmă, la 23:00 UTC  
Vânt 04 kt de la Est
Temperatură 21°C
Umiditatea 83%
Presiune 1010 hPa
Vizibilitate 10 km sau mai mult
Vizibilitatea, norii şi fenomenele meteo actuale mai bune decât valorile sau condiţiile stabilite

Unităţile de măsură

Prognoză

Raportul a fost facut 5 ore si 43 minute în urmă, la 17:33 UTC  
Prognoza valabil de 30la ora 18 UTC până 31la ora 18 UTC
Vânt 06 kt de la Est
Vizibilitate 10 km sau mai mult
Vizibilitatea, norii şi fenomenele meteo actuale mai bune decât valorile sau condiţiile stabilite
Informaţiile de pe acest site fac obiectul unei denegări de responsabilitate
Meteo : Europa Africa America de Nord America de Sud Asia Australia-Oceania Alte
Imagini satelitare Vremea 15-zileClimăMare Cicloane Trăsnet AeroporturiÎntrebări Limbi Contact Noutăţi Despre